Terminal Aerodrome Forecast
Issued by NWS

Home | Current Version | Previous Version | Text Only | Print | Product List | Glossary On
Versions: 1 2 3 4 5 6 7 8 9 10 11 12 13 14 15 16
000
FTUS46 KMTR 281100
TAFSNS
TAF
KSNS 281120Z 2812/2912 28004KT 6SM BR OVC005
     FM281700 28005KT P6SM BKN007 OVC009
     FM281800 29007KT P6SM BKN009 BKN012
     FM281900 27011KT P6SM FEW011 SCT014
     FM290000 26013G20KT P6SM FEW012
     FM290300 27010G16KT P6SM BKN009=

USA.gov is the U.S. government's official web portal to all federal, state and local government web resources and services.